Time,TemperatureF,DewpointF,PressureIn,WindDirection,WindDirectionDegrees,WindSpeedMPH,WindSpeedGustMPH,Humidity,HourlyPrecipIn,Conditions,Clouds,dailyrainin,SoftwareType,DateUTC
2013-02-04 19:44:00,27.0,22.5,29.92,North,0,2.2,2.2,83,0.00,,,0.00,WUHU216HW,2013-02-05 01:44:00,
2013-02-04 19:49:00,27.0,22.5,29.92,North,0,1.1,2.9,83,0.00,,,0.00,WUHU216HW,2013-02-05 01:49:00,
2013-02-04 19:55:00,26.8,22.3,29.92,North,0,1.8,2.9,83,0.00,,,0.00,WUHU216HW,2013-02-05 01:55:00,
2013-02-04 20:00:00,26.6,22.4,29.92,NE,45,2.5,4.0,84,0.00,,,0.00,WUHU216HW,2013-02-05 02:00:00,
2013-02-04 20:05:00,26.6,22.4,29.91,NNE,23,1.1,4.0,84,0.00,,,0.00,WUHU216HW,2013-02-05 02:05:00,
2013-02-04 20:10:00,26.3,22.1,29.91,NNE,23,0.7,2.9,84,0.00,,,0.00,WUHU216HW,2013-02-05 02:10:00,
2013-02-04 20:15:00,26.1,21.9,29.92,NNW,338,1.6,1.6,84,0.00,,,0.00,WUHU216HW,2013-02-05 02:15:00,
2013-02-04 20:20:00,26.1,22.1,29.92,WSW,248,0.0,1.6,85,0.00,,,0.00,WUHU216HW,2013-02-05 02:20:00,
2013-02-04 20:25:00,26.1,22.1,29.92,WSW,248,0.0,1.6,85,0.00,,,0.00,WUHU216HW,2013-02-05 02:25:00,
2013-02-04 20:30:00,25.7,21.5,29.92,WSW,248,0.0,0.4,84,0.00,,,0.00,WUHU216HW,2013-02-05 02:30:00,
2013-02-04 20:35:00,25.4,21.0,29.92,NW,315,0.0,0.0,83,0.00,,,0.00,WUHU216HW,2013-02-05 02:35:00,
2013-02-04 20:40:00,25.2,21.1,29.92,North,0,1.6,1.6,84,0.00,,,0.00,WUHU216HW,2013-02-05 02:40:00,
2013-02-04 20:45:00,25.4,21.5,29.92,NW,315,0.0,1.6,85,0.00,,,0.00,WUHU216HW,2013-02-05 02:45:00,
2013-02-04 20:50:00,25.0,21.2,29.92,NW,315,0.2,0.2,85,0.00,,,0.00,WUHU216HW,2013-02-05 02:50:00,
2013-02-04 20:55:00,25.0,21.2,29.93,North,0,0.4,0.4,85,0.00,,,0.00,WUHU216HW,2013-02-05 02:55:00,
2013-02-04 21:00:00,25.2,21.3,29.92,NNW,338,0.0,0.4,85,0.00,,,0.00,WUHU216HW,2013-02-05 03:00:00,
2013-02-04 21:05:00,24.8,21.0,29.93,NNW,338,0.0,0.4,85,0.00,,,0.00,WUHU216HW,2013-02-05 03:05:00,
2013-02-04 21:10:00,24.8,21.2,29.93,WSW,248,0.4,0.4,86,0.00,,,0.00,WUHU216HW,2013-02-05 03:10:00,
2013-02-04 21:15:00,24.8,21.0,29.94,NNW,338,0.0,0.4,85,0.00,,,0.00,WUHU216HW,2013-02-05 03:15:00,
2013-02-04 21:20:00,24.7,20.8,29.94,NNW,338,0.0,0.0,85,0.00,,,0.00,WUHU216HW,2013-02-05 03:20:00,
2013-02-04 21:25:00,24.5,20.6,29.93,North,0,0.0,0.0,85,0.00,,,0.00,WUHU216HW,2013-02-05 03:25:00,
2013-02-04 21:30:00,24.5,20.9,29.94,NW,315,0.0,0.0,86,0.00,,,0.00,WUHU216HW,2013-02-05 03:30:00,
2013-02-04 21:35:00,24.5,21.2,29.94,WSW,248,0.0,0.4,87,0.00,,,0.00,WUHU216HW,2013-02-05 03:35:00,
2013-02-04 21:40:00,24.5,21.2,29.94,WSW,248,0.0,0.4,87,0.00,,,0.00,WUHU216HW,2013-02-05 03:40:00,
2013-02-04 21:45:00,24.3,21.0,29.94,WNW,293,0.0,0.0,87,0.00,,,0.00,WUHU216HW,2013-02-05 03:45:00,
2013-02-04 21:50:00,24.3,21.2,29.94,WNW,293,0.2,0.9,88,0.00,,,0.00,WUHU216HW,2013-02-05 03:50:00,
2013-02-04 21:55:00,23.9,20.3,29.94,WNW,293,0.0,0.9,86,0.00,,,0.00,WUHU216HW,2013-02-05 03:55:00,
2013-02-04 22:00:00,23.6,20.3,29.94,West,270,0.0,0.0,87,0.00,,,0.00,WUHU216HW,2013-02-05 04:00:00,
2013-02-04 22:05:00,23.6,20.3,29.94,WSW,248,0.0,0.0,87,0.00,,,0.00,WUHU216HW,2013-02-05 04:05:00,
2013-02-04 22:10:00,23.6,20.0,29.94,WNW,293,0.0,0.0,86,0.00,,,0.00,WUHU216HW,2013-02-05 04:10:00,
2013-02-04 22:15:00,23.6,20.0,29.94,WNW,293,0.0,0.0,86,0.00,,,0.00,WUHU216HW,2013-02-05 04:15:00,
2013-02-04 22:20:00,23.4,19.8,29.94,WNW,293,0.0,0.0,86,0.00,,,0.00,WUHU216HW,2013-02-05 04:20:00,
2013-02-04 22:25:00,23.0,19.4,29.94,NNW,338,0.0,0.0,86,0.00,,,0.00,WUHU216HW,2013-02-05 04:25:00,
2013-02-04 22:30:00,23.2,19.9,29.93,WSW,248,0.0,0.0,87,0.00,,,0.00,WUHU216HW,2013-02-05 04:30:00,
2013-02-04 22:35:00,23.4,20.3,29.94,WSW,248,0.0,0.0,88,0.00,,,0.00,WUHU216HW,2013-02-05 04:35:00,
2013-02-04 22:40:00,23.6,20.5,29.93,West,270,0.0,0.0,88,0.00,,,0.00,WUHU216HW,2013-02-05 04:40:00,
2013-02-04 22:45:00,23.4,20.1,29.93,WSW,248,0.0,0.0,87,0.00,,,0.00,WUHU216HW,2013-02-05 04:45:00,
2013-02-04 22:50:00,23.4,20.3,29.93,WSW,248,0.0,0.0,88,0.00,,,0.00,WUHU216HW,2013-02-05 04:50:00,
2013-02-04 22:55:00,23.0,19.7,29.92,West,270,0.0,0.0,87,0.00,,,0.00,WUHU216HW,2013-02-05 04:55:00,
2013-02-04 23:00:00,22.9,19.0,29.92,WNW,293,0.0,0.0,85,0.00,,,0.00,WUHU216HW,2013-02-05 05:00:00,
2013-02-04 23:05:00,22.7,18.8,29.92,WNW,293,0.0,0.0,85,0.00,,,0.00,WUHU216HW,2013-02-05 05:05:00,
2013-02-04 23:10:00,22.7,19.1,29.92,NW,315,0.0,0.0,86,0.00,,,0.00,WUHU216HW,2013-02-05 05:10:00,
2013-02-04 23:15:00,23.0,19.7,29.92,SW,225,0.4,0.4,87,0.00,,,0.00,WUHU216HW,2013-02-05 05:15:00,
2013-02-04 23:20:00,23.4,20.3,29.92,West,270,0.0,0.4,88,0.00,,,0.00,WUHU216HW,2013-02-05 05:20:00,
2013-02-04 23:25:00,23.4,20.1,29.92,WSW,248,0.0,0.4,87,0.00,,,0.00,WUHU216HW,2013-02-05 05:25:00,
2013-02-04 23:30:00,23.2,19.9,29.92,WNW,293,0.0,0.0,87,0.00,,,0.00,WUHU216HW,2013-02-05 05:30:00,
2013-02-04 23:35:00,23.2,20.2,29.92,WSW,248,0.0,0.2,88,0.00,,,0.00,WUHU216HW,2013-02-05 05:35:00,
2013-02-04 23:40:00,23.4,20.3,29.92,WSW,248,0.0,0.2,88,0.00,,,0.00,WUHU216HW,2013-02-05 05:40:00,
2013-02-04 23:45:00,23.4,20.3,29.92,NW,315,0.0,0.0,88,0.00,,,0.00,WUHU216HW,2013-02-05 05:45:00,
2013-02-04 23:51:00,23.2,19.9,29.91,NNW,338,0.0,0.0,87,0.00,,,0.00,WUHU216HW,2013-02-05 05:51:00,
2013-02-04 23:56:00,23.6,20.5,29.91,NW,315,0.0,1.1,88,0.00,,,0.00,WUHU216HW,2013-02-05 05:56:00,